• Join FlightAware (Why Join?)
  • Login
  • US Flag 
11:14AM EDT


 

Airport Tracker/Info


-or-


 

Live Flight TrackerFlight Track Log ✈ C-GIRL ✈ 20-Sep-2013 ✈ CYTH - CYYG

Flight Track Log - Related Links

Times and Time Zones

All times are in EDT time to prevent confusion due to time zone crossing. See the C-GIRL flight status page for this flight to view local times or setup timezone preferences in your user account.

Time Position Orientation Groundspeed Altitude Reporting Facility
EDT Latitude Longitude Course Direction KTS MPH feet Rate Location/Type
01:12PM 55.8167 -97.7000 73° East 210 242 5,800  Level Winnipeg Center
01:13PM 55.8000 -97.5833 104° East 240 276 8,600 2,700 Climbing Winnipeg Center
01:14PM 55.8167 -97.4333 79° East 260 299 11,200 2,400 Climbing Winnipeg Center
01:15PM 55.8167 -97.3167 90° East 270 311 13,400 2,220 Climbing Winnipeg Center
01:16PM 55.7044 -96.8442 85° East  Level Estimated
01:16PM 55.8333 -97.1667 79° East 270 311 15,700  Level Winnipeg Center
01:17PM 55.8333 -97.0500 90° East 280 322 17,400 1,560 Climbing Winnipeg Center
01:18PM 55.8500 -96.9000 79° East 290 334 18,900 1,500 Climbing Winnipeg Center
01:19PM 55.8500 -96.7500 90° East 310 357 20,400 1,500 Climbing Winnipeg Center
01:20PM 55.8667 -96.5667 81° East 310 357 21,900 1,380 Climbing Winnipeg Center
01:21PM 55.8667 -96.4333 90° East 320 368 23,200 1,260 Climbing Winnipeg Center
01:22PM 55.8833 -96.2833 79° East 320 368 24,500 1,200 Climbing Winnipeg Center
01:23PM 55.8833 -96.1333 90° East 320 368 25,600 1,020 Climbing Winnipeg Center
01:24PM 55.9000 -95.9500 81° East 330 380 26,600 1,200 Climbing Winnipeg Center
01:25PM 55.9000 -95.8000 90° East 330 380 28,000 1,080 Climbing Winnipeg Center
01:26PM 55.9167 -95.6167 81° East 330 380 28,800 900 Climbing Winnipeg Center
01:27PM 55.9167 -95.4667 90° East 340 391 29,800 900 Climbing Winnipeg Center
01:28PM 55.9333 -95.2833 81° East 340 391 30,700 900 Climbing Winnipeg Center
01:29PM 55.9167 -95.1167 100° East 340 391 31,700 1,020 Climbing Winnipeg Center
01:30PM 55.9333 -94.9667 79° East 340 391 32,800 1,080 Climbing Winnipeg Center
01:31PM 55.9333 -94.7833 90° East 330 380 33,900 900 Climbing Winnipeg Center
01:32PM 55.9500 -94.6333 79° East 330 380 34,600 600 Climbing Winnipeg Center
01:33PM 55.9667 -94.4833 79° East 330 380 35,100 540 Climbing Winnipeg Center
01:34PM 55.9667 -94.3000 90° East 340 391 35,700 720 Climbing Winnipeg Center
01:35PM 55.9667 -94.1167 90° East 340 391 36,600 600 Climbing Winnipeg Center
01:36PM 55.9500 -93.9000 98° East 340 391 37,000 420 Climbing Edmonton Center
01:37PM 55.9500 -93.7167 90° East 340 391 37,600 480 Climbing Edmonton Center
01:38PM 55.9833 -93.6167 59° Northeast 350 403 38,000 420 Climbing Winnipeg Center
01:39PM 55.9833 -93.4333 90° East 350 403 38,400 480 Climbing Winnipeg Center
01:40PM 55.9833 -93.2500 90° East 350 403 39,000 300 Climbing Winnipeg Center
01:41PM 56.0000 -93.1000 79° East 350 403 39,000  Level Winnipeg Center
01:42PM 55.9833 -92.9167 99° East 360 414 39,000  Level Winnipeg Center
01:43PM 56.0000 -92.7333 81° East 370 426 39,000  Level Winnipeg Center
01:44PM 56.0167 -92.5333 81° East 370 426 39,000  Level Winnipeg Center
01:45PM 56.0000 -92.3500 99° East 370 426 39,000 240 Level Winnipeg Center
01:46PM 56.0167 -92.1667 81° East 370 426 39,500 480 Climbing Winnipeg Center
01:47PM 56.0000 -91.9500 98° East 360 414 40,100 360 Climbing Edmonton Center
01:48PM 56.0000 -91.7667 90° East 350 403 40,300 300 Climbing Edmonton Center
01:49PM 55.9833 -91.5833 99° East 350 403 40,700 300 Climbing Edmonton Center
01:50PM 56.0000 -91.4000 81° East 350 403 40,900 120 Climbing Edmonton Center
01:51PM 56.0000 -91.2167 90° East 360 414 41,000  Climbing Edmonton Center
01:52PM 56.0000 -91.0667 90° East 360 414 41,000  Level Edmonton Center
01:53PM 56.0167 -90.8667 81° East 360 414 41,000  Level Edmonton Center
01:54PM 56.0167 -90.7333 90° East 370 426 41,000  Level Winnipeg Center
01:55PM 56.0167 -90.5500 90° East 380 437 41,000  Level Winnipeg Center
01:56PM 56.0333 -90.3667 81° East 380 437 41,000  Level Winnipeg Center
01:57PM 56.0000 -90.1333 104° East 380 437 41,000  Level Edmonton Center
01:58PM 56.0000 -89.9167 90° East 380 437 41,000  Level Edmonton Center
01:59PM 55.9833 -89.7333 99° East 370 426 41,000  Level Edmonton Center
02:00PM 55.9500 -89.5667 110° East 380 437 41,000  Level Edmonton Center
02:01PM 55.9333 -89.3667 98° East 370 426 41,000  Level Edmonton Center
02:02PM 55.9000 -89.2167 112° Southeast 370 426 41,000  Level Edmonton Center
02:03PM 55.8833 -89.0167 98° East 360 414 41,000  Level Edmonton Center
02:04PM 55.8667 -88.8667 101° East 360 414 41,000  Level Edmonton Center
02:05PM 55.8333 -88.6833 108° East 360 414 41,000  Level Edmonton Center
02:06PM 55.8167 -88.5167 100° East 360 414 41,000  Level Edmonton Center
02:07PM 55.7833 -88.3333 108° East 360 414 41,000  Level Edmonton Center
02:08PM 55.7500 -88.1667 110° East 350 403 41,000  Level Edmonton Center
02:09PM 55.7500 -88.0500 90° East 360 414 41,000  Level Winnipeg Center
02:10PM 55.7167 -87.8833 109° East 360 414 41,000  Level Winnipeg Center
02:11PM 55.7000 -87.7167 100° East 360 414 41,000  Level Winnipeg Center
02:12PM 55.6667 -87.5333 108° East 360 414 41,000  Level Winnipeg Center
02:13PM 55.6333 -87.3667 109° East 360 414 41,000  Level Winnipeg Center
02:14PM 55.6167 -87.1833 99° East 350 403 41,000  Level Winnipeg Center
02:15PM 55.5833 -87.0167 109° East 360 414 41,000  Level Winnipeg Center
02:16PM 55.5500 -86.8500 109° East 360 414 41,000  Level Winnipeg Center
02:17PM 55.5333 -86.6833 100° East 350 403 41,000  Level Winnipeg Center
02:18PM 55.4833 -86.4667 112° Southeast 350 403 41,000  Level Edmonton Center
02:19PM 55.4667 -86.3000 100° East 350 403 41,000  Level Edmonton Center
02:20PM 55.4167 -86.1333 118° Southeast 350 403 41,000  Level Edmonton Center
02:21PM 55.3833 -85.9667 109° East 350 403 41,000  Level Edmonton Center
02:22PM 55.3833 -85.8500 90° East 350 403 41,000  Level Winnipeg Center
02:23PM 55.3500 -85.6833 109° East 350 403 41,000  Level Winnipeg Center
02:24PM 55.3167 -85.5167 109° East 350 403 41,000  Level Winnipeg Center
02:25PM 55.3167 -85.3667 90° East 350 403 41,000  Level Winnipeg Center
02:26PM 55.2833 -85.2000 109° East 350 403 41,000  Level Winnipeg Center
02:27PM 55.2167 -84.9833 118° Southeast 350 403 41,000  Level Edmonton Center
02:28PM 55.2000 -84.8167 100° East 360 414 41,000  Level Edmonton Center
02:29PM 55.1667 -84.6333 108° East 360 414 41,000  Level Edmonton Center
02:30PM 55.1167 -84.4833 120° Southeast 360 414 41,000  Level Edmonton Center
02:31PM 55.0833 -84.3167 109° East 370 426 41,000  Level Edmonton Center
02:32PM 55.0667 -84.1333 99° East 360 414 41,000  Level Edmonton Center
02:33PM 55.0333 -83.9667 109° East 360 414 41,000  Level Edmonton Center
02:34PM 55.0000 -83.8167 111° Southeast 360 414 41,000  Level Edmonton Center
02:35PM 54.9667 -83.6500 109° East 360 414 41,000  Level Edmonton Center
02:36PM 54.9333 -83.4833 109° East 360 414 41,000  Level Edmonton Center
02:36PM 54.9500 -83.4833 360° North 370 426 41,000  Level Montreal Center
02:37PM 54.9000 -83.3000 115° Southeast 370 426 41,000  Level Montreal Center
02:38PM 54.8667 -83.1333 109° East 370 426 41,000  Level Montreal Center
02:39PM 54.8500 -82.9500 99° East 380 437 41,000  Level Montreal Center
02:40PM 54.8000 -82.7833 117° Southeast 380 437 41,000  Level Montreal Center
02:41PM 54.7667 -82.6167 109° East 380 437 41,000  Level Montreal Center
02:43PM 54.6833 -82.2833 113° Southeast 390 449 41,000  Level Edmonton Center
02:44PM 54.6333 -82.0833 113° Southeast 390 449 41,000  Level Edmonton Center
02:45PM 54.6000 -81.9167 109° East 380 437 41,000  Level Edmonton Center
02:45PM 54.6167 -81.9000 30° Northeast 380 437 41,000  Level Montreal Center
02:46PM 54.5833 -81.7500 111° Southeast 380 437 41,000  Level Montreal Center
02:47PM 54.5500 -81.5667 107° East 380 437 41,000  Level Montreal Center
02:48PM 54.5000 -81.3833 115° Southeast 380 437 41,000  Level Montreal Center
02:49PM 54.4667 -81.2167 109° East 380 437 41,000  Level Montreal Center
02:50PM 54.4333 -81.0667 111° Southeast 390 449 41,000  Level Montreal Center
02:51PM 54.3833 -80.8833 115° Southeast 390 449 41,000  Level Montreal Center
02:52PM 54.3500 -80.7000 107° East 390 449 41,000  Level Montreal Center
02:53PM 54.3167 -80.5333 109° East 390 449 41,000  Level Montreal Center
02:54PM 54.2667 -80.3500 115° Southeast 390 449 41,000  Level Montreal Center
02:55PM 54.2333 -80.1667 107° East 390 449 41,000  Level Montreal Center
02:56PM 54.1833 -80.0167 120° Southeast 390 449 41,000  Level Montreal Center
02:57PM 54.1333 -79.8167 113° Southeast 390 449 41,000  Level Montreal Center
02:58PM 54.1167 -79.6333 99° East 400 460 41,000  Level Montreal Center
02:59PM 54.0667 -79.4667 117° Southeast 400 460 41,000  Level Montreal Center
03:00PM 54.0167 -79.2833 115° Southeast 400 460 41,000  Level Montreal Center
03:01PM 53.9667 -79.1167 117° Southeast 400 460 41,000  Level Montreal Center
03:02PM 53.9333 -78.9333 107° East 400 460 41,000  Level Montreal Center
03:03PM 53.9000 -78.7667 109° East 410 472 41,000  Level Montreal Center
03:04PM 53.8500 -78.5833 115° Southeast 400 460 41,000  Level Montreal Center
03:05PM 53.8000 -78.4167 117° Southeast 400 460 41,000  Level Montreal Center
03:06PM 53.7500 -78.2500 117° Southeast 400 460 41,000  Level Montreal Center
03:07PM 53.7167 -78.0667 107° East 400 460 41,000  Level Montreal Center
03:08PM 53.6667 -77.9000 117° Southeast 400 460 41,000  Level Montreal Center
03:09PM 53.6333 -77.7167 107° East 400 460 41,000  Level Montreal Center
03:10PM 53.6000 -77.5167 106° East 410 472 41,000  Level Montreal Center
03:11PM 53.5667 -77.3167 106° East 420 483 41,000  Level Montreal Center
03:12PM 53.5333 -77.1500 109° East 420 483 41,000  Level Montreal Center
03:13PM 53.5167 -76.9500 98° East 420 483 41,000  Level Montreal Center
03:14PM 53.4833 -76.7500 106° East 420 483 41,000  Level Montreal Center
03:15PM 53.4500 -76.5500 106° East 420 483 41,000  Level Montreal Center
03:16PM 53.4167 -76.3667 107° East 430 495 41,000  Level Montreal Center
03:17PM 53.3833 -76.1667 106° East 430 495 41,000  Level Montreal Center
03:18PM 53.3500 -75.9667 106° East 430 495 41,000  Level Montreal Center
03:19PM 53.3167 -75.7667 106° East 430 495 41,000  Level Montreal Center
03:20PM 53.2833 -75.5667 106° East 430 495 41,000  Level Montreal Center
03:21PM 53.2667 -75.4000 99° East 440 506 41,000  Level Montreal Center
03:22PM 53.2333 -75.1833 104° East 440 506 41,000  Level Montreal Center
03:23PM 53.2000 -75.0000 107° East 440 506 41,000  Level Montreal Center
03:24PM 53.1667 -74.8167 107° East 440 506 41,000  Level Montreal Center
03:25PM 53.1333 -74.5833 103° East 440 506 41,000  Level Montreal Center
03:26PM 53.1000 -74.4000 107° East 440 506 41,000  Level Montreal Center
03:27PM 53.0500 -74.2000 113° Southeast 440 506 41,000  Level Montreal Center
03:28PM 53.0167 -74.0000 105° East 440 506 41,000  Level Montreal Center
03:29PM 52.9833 -73.8167 107° East 450 518 41,000  Level Montreal Center
03:30PM 52.9500 -73.5833 103° East 450 518 41,000  Level Montreal Center
03:31PM 52.9000 -73.4000 114° Southeast 450 518 41,000  Level Montreal Center
03:32PM 52.8667 -73.2000 105° East 450 518 41,000  Level Montreal Center
03:33PM 52.8333 -73.0167 107° East 450 518 41,000  Level Montreal Center
03:34PM 52.8000 -72.8167 105° East 450 518 41,000  Level Montreal Center
03:35PM 52.7500 -72.6000 111° Southeast 460 529 41,000  Level Montreal Center
03:36PM 52.7167 -72.4000 105° East 460 529 41,000  Level Montreal Center
03:37PM 52.6667 -72.1833 111° Southeast 460 529 41,000  Level Montreal Center
03:38PM 52.6333 -72.0000 107° East 460 529 41,000  Level Montreal Center
03:39PM 52.6000 -71.8000 105° East 460 529 41,000  Level Montreal Center
03:40PM 52.5500 -71.5833 111° Southeast 460 529 41,000  Level Montreal Center
03:41PM 52.5167 -71.4000 107° East 460 529 41,000  Level Montreal Center
03:42PM 52.4667 -71.1833 111° Southeast 460 529 41,000  Level Montreal Center
03:43PM 52.4333 -71.0000 107° East 460 529 41,000  Level Montreal Center
03:44PM 52.3833 -70.8000 112° Southeast 470 541 41,000  Level Montreal Center
03:45PM 52.3333 -70.5833 111° Southeast 460 529 41,000  Level Montreal Center
03:46PM 52.3000 -70.4000 106° East 460 529 41,000  Level Montreal Center
03:47PM 52.2500 -70.1833 111° Southeast 470 541 41,000  Level Montreal Center
03:48PM 52.2167 -70.0000 106° East 470 541 41,000  Level Montreal Center
03:49PM 52.1667 -69.7833 111° Southeast 470 541 41,000  Level Montreal Center
03:50PM 52.1167 -69.5667 111° Southeast 470 541 41,000  Level Montreal Center
03:51PM 52.0833 -69.3833 106° East 470 541 41,000  Level Montreal Center
03:52PM 52.0333 -69.1667 110° East 470 541 41,000  Level Montreal Center
03:53PM 51.9833 -68.9833 114° Southeast 460 529 41,000  Level Montreal Center
03:54PM 51.9333 -68.8000 114° Southeast 460 529 41,000  Level Montreal Center
03:55PM 51.8667 -68.6500 126° Southeast 460 529 41,000  Level Montreal Center
03:56PM 51.7500 -68.5333 148° Southeast 450 518 41,000  Level Montreal Center
03:57PM 51.6500 -68.4167 144° Southeast 450 518 41,000  Level Montreal Center
03:58PM 51.5333 -68.3000 148° Southeast 460 529 41,000  Level Montreal Center
03:59PM 51.4500 -68.1833 139° Southeast 460 529 41,000  Level Montreal Center
04:00PM 51.3333 -68.0667 148° Southeast 460 529 41,000  Level Montreal Center
04:01PM 51.2333 -67.9500 144° Southeast 460 529 41,000  Level Montreal Center
04:02PM 51.1167 -67.8333 148° Southeast 460 529 41,000  Level Montreal Center
04:03PM 51.0167 -67.7167 144° Southeast 460 529 41,000  Level Montreal Center
04:04PM 50.9167 -67.6000 144° Southeast 460 529 41,000  Level Montreal Center
04:05PM 50.8000 -67.4833 148° Southeast 460 529 41,000  Level Montreal Center
04:06PM 50.6833 -67.3500 144° Southeast 460 529 41,000  Level Montreal Center
04:07PM 50.5833 -67.2667 152° Southeast 460 529 41,000  Level Montreal Center
04:08PM 50.4833 -67.1500 143° Southeast 460 529 41,000  Level Montreal Center
04:09PM 50.3833 -67.0000 136° Southeast 460 529 41,000  Level Montreal Center
04:10PM 50.2667 -66.9167 155° Southeast 460 529 41,000  Level Montreal Center
04:11PM 50.1500 -66.7833 144° Southeast 460 529 41,000  Level Montreal Center
04:13PM 50.0500 -66.6833 147° Southeast 460 529 41,000  Level Montreal Center
04:14PM 49.9500 -66.5667 143° Southeast 460 529 41,000  Level Montreal Center
04:15PM 49.8500 -66.4500 143° Southeast 460 529 41,000  Level Montreal Center
04:16PM 49.7333 -66.3500 151° Southeast 460 529 41,000  Level Montreal Center
04:16PM 49.6167 -66.2333 147° Southeast 460 529 41,000  Level Montreal Center
04:17PM 49.5333 -66.1333 142° Southeast 460 529 41,000  Level Montreal Center
04:18PM 49.4000 -66.0167 150° Southeast 460 529 41,000  Level Montreal Center
04:19PM 49.3000 -65.9167 147° Southeast 460 529 41,000  Level Montreal Center
04:20PM 49.1833 -65.7833 143° Southeast 460 529 41,000  Level Montreal Center
04:21PM 49.0833 -65.7000 151° Southeast 460 529 41,000  Level Montreal Center
04:22PM 48.9667 -65.5667 143° Southeast 460 529 41,000  Level Montreal Center
04:23PM 48.8667 -65.4667 147° Southeast 460 529 41,000  Level Montreal Center
04:24PM 48.7667 -65.3833 151° Southeast 460 529 41,000  Level Montreal Center
04:25PM 48.6500 -65.2500 143° Southeast 460 529 41,000  Level Montreal Center
04:26PM 48.5333 -65.1500 150° Southeast 460 529 41,000  Level Montreal Center
04:27PM 48.4333 -65.0500 146° Southeast 460 529 41,000  Level Montreal Center
04:29PM 48.3000 -64.9833 162° South 460 529 41,000  Level Gander Center
04:30PM 48.1833 -64.8667 146° Southeast 460 529 41,000 -240 Level Gander Center
04:31PM 48.1000 -64.7833 146° Southeast 460 529 40,600 -720 Descending Gander Center
04:32PM 47.9833 -64.7000 154° Southeast 460 529 39,600 -1,320 Descending Gander Center
04:33PM 47.8500 -64.6167 157° South 450 518 37,900 -1,980 Descending Moncton Center
04:34PM 47.7167 -64.5667 166° South 450 518 35,500 -2,400 Descending Moncton Center
04:35PM 47.6167 -64.5000 156° South 450 518 33,200 -2,340 Descending Moncton Center
04:36PM 47.5000 -64.4167 154° Southeast 430 495 30,900 -2,160 Descending Moncton Center
04:37PM 47.4000 -64.3167 146° Southeast 430 495 28,900 -2,280 Descending Moncton Center
04:38PM 47.3000 -64.2167 146° Southeast 430 495 26,400 -2,400 Descending Moncton Center
04:39PM 47.2000 -64.1333 150° Southeast 430 495 24,200 -2,280 Descending Moncton Center
04:40PM 47.1167 -64.0000 133° Southeast 410 472 21,900 -2,160 Descending Moncton Center
04:41PM 47.0333 -63.9333 151° Southeast 390 449 19,900 -2,040 Descending Moncton Center
04:42PM 46.9500 -63.8333 141° Southeast 370 426 17,900 -1,980 Descending Moncton Center
04:43PM 46.8667 -63.7333 141° Southeast 360 414 16,000 -1,800 Descending Moncton Center
04:44PM 46.8000 -63.6667 146° Southeast 350 403 14,300 -1,800 Descending Moncton Center
04:46PM 46.6480 -63.5065 143° Southeast  Level FlightAware Approximate
04:47PM 46.5667 -63.4167 143° Southeast 310 357 8,900  Level Moncton Center
04:48PM 46.5000 -63.3500 145° Southeast 280 322 6,800 -1,980 Descending Moncton Center
04:49PM 46.4500 -63.2833 137° Southeast 270 311 5,000 -1,800 Descending Moncton Center
04:50PM 46.3833 -63.2333 153° Southeast 260 299 3,200 -1,560 Descending Moncton Center
04:51PM 46.3333 -63.1833 145° Southeast 230 265 1,900 -960 Descending Moncton Center
04:52PM 46.2833 -63.1667 167° South 180 207 1,300 -540 Descending Moncton Center
04:53PM 46.2500 -63.1333 145° Southeast 150 173 900 -300 Descending Moncton Center
04:54PM 46.2167 -63.1167 161° South 150 173 800 -120 Descending Moncton Center